Terminal Aerodrome Forecast
Issued by NWS

Home | Current Version | Previous Version | Text Only | Print | Product List | Glossary On
Versions: 1 2 3 4 5 6 7 8 9 10 11 12 13 14 15 16 17 18 19 20 21 22 23 24 25 26 27 28 29 30 31 32 33 34 35 36 37 38 39 40 41 42 43 44
000
FTAK31 PANC 161731
TAFACD
TAF
PACD 161731Z 1618/1718 34008KT P6SM BKN007 OVC015
     FM162300 33016KT 2SM -SHRASN OVC007
     FM170500 33015KT 1SM -SN OVC005
     FM171500 30015KT 4SM -SHSN BR OVC015=

USA.gov is the U.S. government's official web portal to all federal, state and local government web resources and services.